Time;durP1;ratioP1;P1;durP2;ratioP2;P2;SDS_P1;SDS_P2;PMS_P1;PMS_P2;Temp;Humidity;BMP_temperature;BMP_pressure;BME280_temperature;BME280_humidity;BME280_pressure;Samples;Min_cycle;Max_cycle;Signal;HPM_P1;HPM_P2
2022/03/26 00:02:28;;;;;;;92.15;36.05;;;;;;;;;;6244458;28;20100;-65
2022/03/26 00:05:28;;;;;;;86.20;35.35;;;;;;;;;;6243997;28;20034;-65
2022/03/26 00:08:29;;;;;;;86.32;36.97;;;;;;;;;;6225959;28;20747;-65
2022/03/26 00:11:29;;;;;;;104.60;43.85;;;;;;;;;;6279881;23;20060;-81
2022/03/26 00:14:30;;;;;;;83.47;33.97;;;;;;;;;;6270711;28;20033;-81
2022/03/26 00:17:31;;;;;;;88.80;36.90;;;;;;;;;;6289956;28;20051;-81
2022/03/26 00:20:31;;;;;;;84.35;35.47;;;;;;;;;;6285287;28;20408;-82
2022/03/26 00:23:32;;;;;;;94.45;38.63;;;;;;;;;;6285079;28;20024;-82
2022/03/26 00:26:32;;;;;;;100.05;40.38;;;;;;;;;;6278446;28;20411;-82
2022/03/26 00:29:32;;;;;;;93.20;41.00;;;;;;;;;;6278167;28;20111;-82
2022/03/26 00:32:33;;;;;;;95.63;41.65;;;;;;;;;;6276634;28;20105;-82
2022/03/26 00:35:33;;;;;;;105.05;40.05;;;;;;;;;;6294442;28;20096;-82
2022/03/26 00:38:33;;;;;;;88.40;37.10;;;;;;;;;;6277271;28;20027;-82
2022/03/26 00:41:34;;;;;;;92.53;39.53;;;;;;;;;;6276047;28;20016;-82
2022/03/26 00:44:35;;;;;;;85.80;42.20;;;;;;;;;;6277718;28;20379;-82
2022/03/26 00:47:35;;;;;;;84.85;36.53;;;;;;;;;;6294492;28;20115;-81
2022/03/26 00:50:35;;;;;;;86.35;39.45;;;;;;;;;;6294218;28;20029;-81
2022/03/26 00:53:36;;;;;;;90.38;39.25;;;;;;;;;;6294681;28;20012;-81
2022/03/26 00:56:37;;;;;;;85.80;36.22;;;;;;;;;;6276703;28;20028;-82
2022/03/26 00:59:37;;;;;;;95.43;38.60;;;;;;;;;;6275798;28;20051;-81
2022/03/26 01:02:38;;;;;;;85.70;35.65;;;;;;;;;;6281354;28;20526;-81
2022/03/26 01:05:41;;;;;;;86.50;34.88;;;;;;;;;;6284812;28;20317;-81
2022/03/26 01:08:42;;;;;;;90.35;35.90;;;;;;;;;;6276797;28;20021;-81
2022/03/26 01:11:42;;;;;;;81.45;33.63;;;;;;;;;;6244242;28;20085;-81
2022/03/26 01:14:42;;;;;;;87.45;36.35;;;;;;;;;;6231498;28;20104;-81
2022/03/26 01:17:42;;;;;;;93.82;37.72;;;;;;;;;;6230403;28;20022;-81
2022/03/26 01:20:43;;;;;;;97.75;37.75;;;;;;;;;;6243044;28;20025;-82
2022/03/26 01:23:44;;;;;;;83.80;34.35;;;;;;;;;;6244646;28;20041;-81
2022/03/26 01:26:44;;;;;;;78.13;34.93;;;;;;;;;;6242458;28;20027;-81
2022/03/26 01:29:45;;;;;;;80.00;34.03;;;;;;;;;;6243098;28;20264;-81
2022/03/26 01:32:46;;;;;;;76.13;33.72;;;;;;;;;;6242288;28;20037;-81
2022/03/26 01:35:47;;;;;;;85.72;33.85;;;;;;;;;;6242888;28;20404;-81
2022/03/26 01:38:47;;;;;;;77.55;34.90;;;;;;;;;;6244172;28;20073;-81
2022/03/26 01:41:47;;;;;;;97.93;35.90;;;;;;;;;;6243413;28;20053;-81
2022/03/26 01:44:48;;;;;;;87.45;38.30;;;;;;;;;;6244516;28;20061;-81
2022/03/26 01:47:48;;;;;;;84.82;34.13;;;;;;;;;;6232623;28;20025;-81
2022/03/26 01:50:48;;;;;;;95.95;38.20;;;;;;;;;;6240213;28;20368;-81
2022/03/26 01:53:52;;;;;;;86.20;37.33;;;;;;;;;;6244913;28;20068;-81
2022/03/26 01:56:53;;;;;;;96.00;40.78;;;;;;;;;;6241655;28;20072;-81
2022/03/26 01:59:54;;;;;;;94.53;37.55;;;;;;;;;;6243829;28;20375;-81
2022/03/26 02:02:54;;;;;;;101.03;43.35;;;;;;;;;;6244159;28;20025;-81
2022/03/26 02:05:55;;;;;;;77.45;34.47;;;;;;;;;;6234065;28;20029;-81
2022/03/26 02:08:56;;;;;;;77.20;36.33;;;;;;;;;;6239014;28;20535;-81
2022/03/26 02:11:56;;;;;;;93.03;38.70;;;;;;;;;;6242320;28;20302;-82
2022/03/26 02:14:57;;;;;;;72.82;34.60;;;;;;;;;;6242880;28;20448;-81
2022/03/26 02:17:58;;;;;;;65.50;29.23;;;;;;;;;;6243068;28;20029;-81
2022/03/26 02:20:58;;;;;;;69.03;30.60;;;;;;;;;;6242476;28;20021;-81
2022/03/26 02:23:58;;;;;;;75.93;32.30;;;;;;;;;;6244466;28;20487;-81
2022/03/26 02:26:58;;;;;;;74.22;31.95;;;;;;;;;;6244016;28;20030;-81
2022/03/26 02:29:59;;;;;;;76.90;34.20;;;;;;;;;;6226539;28;20029;-81
2022/03/26 02:32:59;;;;;;;81.55;33.08;;;;;;;;;;6243337;28;20013;-81
2022/03/26 02:36:00;;;;;;;77.65;33.97;;;;;;;;;;6241090;28;20067;-81
2022/03/26 02:39:00;;;;;;;84.13;36.55;;;;;;;;;;6245970;28;20205;-82
2022/03/26 02:42:01;;;;;;;86.43;42.08;;;;;;;;;;6236669;28;20041;-81
2022/03/26 02:45:01;;;;;;;98.20;42.55;;;;;;;;;;6221772;28;20466;-81
2022/03/26 02:48:02;;;;;;;98.78;42.35;;;;;;;;;;6238006;28;20033;-81
2022/03/26 02:51:02;;;;;;;101.28;43.17;;;;;;;;;;6245524;28;20022;-81
2022/03/26 02:54:02;;;;;;;103.35;45.72;;;;;;;;;;6246114;28;20460;-81
2022/03/26 02:57:03;;;;;;;110.03;46.85;;;;;;;;;;6247332;28;20049;-82
2022/03/26 03:00:03;;;;;;;83.22;39.97;;;;;;;;;;6246163;28;20091;-81
2022/03/26 03:03:04;;;;;;;86.25;37.83;;;;;;;;;;6246961;28;20075;-81
2022/03/26 03:06:04;;;;;;;80.45;37.83;;;;;;;;;;6246690;28;19998;-81
2022/03/26 03:09:06;;;;;;;87.90;38.15;;;;;;;;;;6246023;28;20048;-81
2022/03/26 03:12:07;;;;;;;109.57;45.22;;;;;;;;;;6284621;28;20132;-82
2022/03/26 03:15:07;;;;;;;94.80;42.45;;;;;;;;;;6297943;28;20119;-82
2022/03/26 03:18:07;;;;;;;96.28;42.63;;;;;;;;;;6295552;28;20020;-82
2022/03/26 03:21:11;;;;;;;97.32;44.75;;;;;;;;;;6297557;28;20070;-82
2022/03/26 03:24:11;;;;;;;99.32;42.03;;;;;;;;;;6265747;28;20095;-82
2022/03/26 03:27:12;;;;;;;94.70;42.10;;;;;;;;;;6294579;28;20016;-82
2022/03/26 03:30:12;;;;;;;94.72;41.25;;;;;;;;;;6279887;28;20571;-82
2022/03/26 03:33:13;;;;;;;113.93;45.85;;;;;;;;;;6296035;28;20009;-82
2022/03/26 03:36:13;;;;;;;105.90;45.53;;;;;;;;;;6295922;28;20064;-81
2022/03/26 03:39:13;;;;;;;105.47;48.55;;;;;;;;;;6278243;28;20020;-81
2022/03/26 03:42:14;;;;;;;111.32;49.22;;;;;;;;;;6285414;28;20031;-81
2022/03/26 03:45:14;;;;;;;107.88;46.40;;;;;;;;;;6297279;28;20379;-81
2022/03/26 03:48:15;;;;;;;99.95;44.75;;;;;;;;;;6279791;28;20016;-81
2022/03/26 03:51:15;;;;;;;101.82;45.70;;;;;;;;;;6297099;28;20020;-82
2022/03/26 03:54:15;;;;;;;81.28;37.28;;;;;;;;;;6278989;28;20024;-82
2022/03/26 03:57:15;;;;;;;83.40;38.53;;;;;;;;;;6296029;28;20430;-82
2022/03/26 04:00:16;;;;;;;85.90;37.75;;;;;;;;;;6296355;28;20063;-81
2022/03/26 04:03:17;;;;;;;81.18;35.70;;;;;;;;;;6277602;28;20070;-81
2022/03/26 04:06:17;;;;;;;75.97;34.20;;;;;;;;;;6295056;28;20031;-81
2022/03/26 04:09:17;;;;;;;89.82;39.65;;;;;;;;;;6295559;28;20035;-81
2022/03/26 04:12:17;;;;;;;88.70;39.85;;;;;;;;;;6295116;28;20067;-82
2022/03/26 04:15:18;;;;;;;107.80;45.03;;;;;;;;;;6295167;28;20021;-82
2022/03/26 04:18:18;;;;;;;89.03;39.67;;;;;;;;;;6271594;28;20033;-81
2022/03/26 04:21:18;;;;;;;92.82;43.30;;;;;;;;;;6268817;28;20495;-81
2022/03/26 04:24:18;;;;;;;101.80;45.30;;;;;;;;;;6273705;28;20164;-81
2022/03/26 04:27:19;;;;;;;94.88;41.80;;;;;;;;;;6294781;28;20074;-81
2022/03/26 04:30:20;;;;;;;106.07;42.97;;;;;;;;;;6275555;28;20017;-81
2022/03/26 04:33:22;;;;;;;113.53;46.90;;;;;;;;;;6293676;28;20017;-81
2022/03/26 04:36:22;;;;;;;109.30;45.67;;;;;;;;;;6276516;28;20029;-81
2022/03/26 04:39:22;;;;;;;105.72;43.38;;;;;;;;;;6276489;28;20028;-81
2022/03/26 04:42:22;;;;;;;95.90;43.88;;;;;;;;;;6282523;28;20023;-81
2022/03/26 04:45:23;;;;;;;112.07;45.15;;;;;;;;;;6294466;28;20092;-81
2022/03/26 04:48:23;;;;;;;101.53;46.15;;;;;;;;;;6275762;28;20021;-81
2022/03/26 04:51:23;;;;;;;110.57;46.40;;;;;;;;;;6293974;28;20519;-81
2022/03/26 04:54:24;;;;;;;88.95;43.33;;;;;;;;;;6294626;28;20379;-82
2022/03/26 04:57:25;;;;;;;92.72;42.75;;;;;;;;;;6293882;28;20090;-81
2022/03/26 05:00:26;;;;;;;90.05;40.22;;;;;;;;;;6289839;28;20024;-81
2022/03/26 05:03:26;;;;;;;87.13;39.92;;;;;;;;;;6280729;28;20017;-81
2022/03/26 05:06:26;;;;;;;76.82;37.08;;;;;;;;;;6265842;28;20074;-81
2022/03/26 05:09:27;;;;;;;87.82;40.17;;;;;;;;;;6290007;28;20025;-81
2022/03/26 05:12:27;;;;;;;101.57;42.92;;;;;;;;;;6269089;28;20090;-81
2022/03/26 05:15:27;;;;;;;91.97;43.67;;;;;;;;;;6272312;28;20480;-81
2022/03/26 05:18:27;;;;;;;106.05;47.88;;;;;;;;;;6287509;28;20384;-81
2022/03/26 05:21:28;;;;;;;97.88;46.72;;;;;;;;;;6263468;28;20027;-81
2022/03/26 05:24:28;;;;;;;86.30;44.58;;;;;;;;;;6285365;28;20028;-81
2022/03/26 05:27:29;;;;;;;103.60;47.97;;;;;;;;;;6251221;28;20419;-81
2022/03/26 05:30:29;;;;;;;99.20;44.03;;;;;;;;;;6273898;28;20477;-81
2022/03/26 05:33:29;;;;;;;103.05;49.83;;;;;;;;;;6270630;28;20012;-81
2022/03/26 05:36:29;;;;;;;107.72;50.78;;;;;;;;;;6294149;28;20391;-82
2022/03/26 05:39:30;;;;;;;98.40;47.05;;;;;;;;;;6294422;28;20589;-82
2022/03/26 05:42:30;;;;;;;106.75;52.05;;;;;;;;;;6293700;28;20135;-82
2022/03/26 05:45:31;;;;;;;103.05;46.38;;;;;;;;;;6275538;28;20491;-81
2022/03/26 05:48:32;;;;;;;86.60;44.65;;;;;;;;;;6276154;28;20520;-82
2022/03/26 05:51:32;;;;;;;103.35;53.30;;;;;;;;;;6291926;28;20404;-82
2022/03/26 05:54:32;;;;;;;101.07;52.10;;;;;;;;;;6286133;28;20098;-81
2022/03/26 05:57:33;;;;;;;97.03;52.40;;;;;;;;;;6289668;28;20188;-81
2022/03/26 06:00:33;;;;;;;99.00;50.85;;;;;;;;;;6273020;28;20286;-81
2022/03/26 06:03:33;;;;;;;97.75;50.85;;;;;;;;;;6266700;28;20028;-81
2022/03/26 06:06:34;;;;;;;112.00;55.97;;;;;;;;;;6275590;28;20051;-81
2022/03/26 06:09:34;;;;;;;96.77;50.13;;;;;;;;;;6293497;28;20266;-81
2022/03/26 06:12:35;;;;;;;95.85;49.80;;;;;;;;;;6292923;28;20286;-82
2022/03/26 06:15:36;;;;;;;97.95;50.53;;;;;;;;;;6278728;28;20023;-82
2022/03/26 06:18:36;;;;;;;89.85;49.55;;;;;;;;;;6286753;28;20028;-82
2022/03/26 06:21:36;;;;;;;88.28;48.70;;;;;;;;;;6285866;28;20116;-81
2022/03/26 06:24:37;;;;;;;93.70;50.90;;;;;;;;;;6279711;28;20027;-82
2022/03/26 06:27:37;;;;;;;92.38;49.08;;;;;;;;;;6298895;28;20201;-82
2022/03/26 06:30:37;;;;;;;93.43;52.72;;;;;;;;;;6285204;28;20032;-82
2022/03/26 06:33:38;;;;;;;86.63;48.93;;;;;;;;;;6278068;28;20025;-82
2022/03/26 06:36:39;;;;;;;95.57;51.47;;;;;;;;;;6278349;28;20255;-82
2022/03/26 06:39:39;;;;;;;84.57;49.23;;;;;;;;;;6296503;28;20313;-82
2022/03/26 06:42:39;;;;;;;88.63;47.10;;;;;;;;;;6269270;28;20028;-83
2022/03/26 06:45:40;;;;;;;100.78;52.80;;;;;;;;;;6266864;28;20310;-83
2022/03/26 06:48:41;;;;;;;99.88;53.65;;;;;;;;;;6265842;28;20090;-84
2022/03/26 06:51:41;;;;;;;92.18;51.25;;;;;;;;;;6289111;28;20047;-83
2022/03/26 06:54:41;;;;;;;86.90;51.45;;;;;;;;;;6278026;28;20017;-84
2022/03/26 06:57:42;;;;;;;81.93;43.93;;;;;;;;;;6270216;28;20032;-84
2022/03/26 07:00:42;;;;;;;85.72;49.53;;;;;;;;;;6267938;28;20281;-84
2022/03/26 07:03:42;;;;;;;83.90;47.33;;;;;;;;;;6285948;28;20017;-84
2022/03/26 07:06:43;;;;;;;81.05;45.28;;;;;;;;;;6290955;28;20035;-84
2022/03/26 07:09:43;;;;;;;94.60;53.88;;;;;;;;;;6275637;28;20024;-84
2022/03/26 07:12:43;;;;;;;88.57;45.03;;;;;;;;;;6294161;28;20048;-83
2022/03/26 07:15:43;;;;;;;88.33;51.57;;;;;;;;;;6270662;28;20108;-83
2022/03/26 07:18:44;;;;;;;101.63;54.33;;;;;;;;;;6267689;28;20307;-83
2022/03/26 07:21:44;;;;;;;98.50;51.00;;;;;;;;;;6269902;28;20414;-84
2022/03/26 07:24:44;;;;;;;82.97;45.10;;;;;;;;;;6282627;28;20021;-84
2022/03/26 07:27:44;;;;;;;76.70;45.17;;;;;;;;;;6267057;28;20280;-84
2022/03/26 07:30:45;;;;;;;74.27;38.47;;;;;;;;;;6270543;28;20263;-84
2022/03/26 07:33:45;;;;;;;64.27;37.53;;;;;;;;;;6287480;28;20270;-84
2022/03/26 07:36:45;;;;;;;69.90;37.17;;;;;;;;;;6273451;28;20279;-83
2022/03/26 07:39:45;;;;;;;63.30;32.83;;;;;;;;;;6287715;28;20275;-84
2022/03/26 07:42:46;;;;;;;56.03;27.45;;;;;;;;;;6286243;28;20024;-83
2022/03/26 07:45:46;;;;;;;54.70;27.08;;;;;;;;;;6288100;28;20025;-83
2022/03/26 07:48:46;;;;;;;39.85;20.55;;;;;;;;;;6285134;28;20036;-83
2022/03/26 07:51:46;;;;;;;39.33;23.02;;;;;;;;;;6272740;28;20067;-83
2022/03/26 07:54:47;;;;;;;45.47;24.07;;;;;;;;;;6292674;28;20016;-84
2022/03/26 07:57:47;;;;;;;45.53;21.23;;;;;;;;;;6295140;28;20033;-84
2022/03/26 08:00:49;;;;;;;47.53;19.37;;;;;;;;;;6292342;28;20085;-84
2022/03/26 08:03:53;;;;;;;44.45;26.23;;;;;;;;;;6287065;28;20018;-83
2022/03/26 08:06:54;;;;;;;46.33;26.05;;;;;;;;;;6269142;28;20077;-83
2022/03/26 08:09:54;;;;;;;39.53;18.63;;;;;;;;;;6287320;28;20028;-83
2022/03/26 08:12:54;;;;;;;43.17;22.40;;;;;;;;;;6295929;28;20111;-83
2022/03/26 08:15:55;;;;;;;41.43;23.47;;;;;;;;;;6293232;28;20439;-83
2022/03/26 08:18:55;;;;;;;41.37;20.60;;;;;;;;;;6287714;28;20028;-83
2022/03/26 08:21:55;;;;;;;42.72;19.35;;;;;;;;;;6266419;28;20179;-83
2022/03/26 08:24:55;;;;;;;48.77;23.90;;;;;;;;;;6259261;28;20040;-83
2022/03/26 08:27:56;;;;;;;38.57;22.33;;;;;;;;;;6263829;28;20035;-83
2022/03/26 08:30:56;;;;;;;41.13;16.47;;;;;;;;;;6268182;28;20037;-83
2022/03/26 08:33:57;;;;;;;50.20;24.25;;;;;;;;;;6289579;28;20021;-83
2022/03/26 08:36:57;;;;;;;42.90;18.03;;;;;;;;;;6283219;28;20040;-84
2022/03/26 08:39:57;;;;;;;38.78;18.52;;;;;;;;;;6251274;28;20696;-83
2022/03/26 08:43:01;;;;;;;35.97;17.87;;;;;;;;;;6271373;28;20035;-83
2022/03/26 08:46:01;;;;;;;32.00;17.45;;;;;;;;;;6255500;28;20124;-83
2022/03/26 08:49:01;;;;;;;40.27;22.07;;;;;;;;;;6255934;28;20344;-83
2022/03/26 08:52:01;;;;;;;41.22;19.38;;;;;;;;;;6249734;28;20282;-82
2022/03/26 08:55:02;;;;;;;27.52;13.57;;;;;;;;;;6258586;28;20020;-82
2022/03/26 08:58:02;;;;;;;38.65;17.85;;;;;;;;;;6260538;28;20025;-83
2022/03/26 09:01:03;;;;;;;35.42;17.52;;;;;;;;;;6261889;28;20384;-83
2022/03/26 09:04:04;;;;;;;48.83;22.35;;;;;;;;;;6276413;28;20548;-83
2022/03/26 09:07:04;;;;;;;33.67;16.35;;;;;;;;;;6255361;28;20139;-82
2022/03/26 09:10:04;;;;;;;40.40;19.87;;;;;;;;;;6272243;28;20088;-82
2022/03/26 09:13:05;;;;;;;28.60;14.23;;;;;;;;;;6275646;28;20023;-83
2022/03/26 09:16:05;;;;;;;47.57;19.73;;;;;;;;;;6265145;28;20356;-82
2022/03/26 09:19:05;;;;;;;40.37;17.30;;;;;;;;;;6275312;28;20123;-83
2022/03/26 09:22:06;;;;;;;37.33;18.25;;;;;;;;;;6256270;28;20033;-82
2022/03/26 09:25:06;;;;;;;33.40;17.80;;;;;;;;;;6265926;28;20020;-83
2022/03/26 09:28:06;;;;;;;28.25;14.27;;;;;;;;;;6276560;28;20024;-83
2022/03/26 09:31:07;;;;;;;37.67;19.60;;;;;;;;;;6258771;28;20013;-83
2022/03/26 09:34:07;;;;;;;31.00;16.57;;;;;;;;;;6258789;28;20112;-83
2022/03/26 09:37:08;;;;;;;34.73;14.63;;;;;;;;;;6274281;28;20044;-83
2022/03/26 09:40:09;;;;;;;37.80;17.73;;;;;;;;;;6273886;28;20036;-83
2022/03/26 09:43:12;;;;;;;33.05;17.00;;;;;;;;;;6256276;28;20380;-83
2022/03/26 09:46:12;;;;;;;33.85;16.60;;;;;;;;;;6267391;28;20020;-82
2022/03/26 09:49:13;;;;;;;37.87;14.50;;;;;;;;;;6278219;28;20008;-82
2022/03/26 09:52:13;;;;;;;29.30;14.13;;;;;;;;;;6286162;28;20013;-82
2022/03/26 09:55:14;;;;;;;29.23;16.03;;;;;;;;;;6286181;28;20012;-82
2022/03/26 09:58:15;;;;;;;29.38;15.85;;;;;;;;;;6257047;28;20384;-82
2022/03/26 10:01:16;;;;;;;28.73;13.67;;;;;;;;;;6285081;28;20024;-82
2022/03/26 10:04:17;;;;;;;29.07;12.80;;;;;;;;;;6277324;28;20407;-83
2022/03/26 10:07:25;;;;;;;32.38;13.57;;;;;;;;;;6272389;28;20024;-83
2022/03/26 10:10:26;;;;;;;30.33;11.80;;;;;;;;;;6272798;28;20051;-82
2022/03/26 10:13:34;;;;;;;23.02;12.18;;;;;;;;;;6272979;28;20036;-82
2022/03/26 10:16:34;;;;;;;19.25;10.38;;;;;;;;;;6275127;28;20492;-82
2022/03/26 10:19:35;;;;;;;29.87;13.73;;;;;;;;;;6275644;28;20078;-82
2022/03/26 10:22:38;;;;;;;22.07;10.93;;;;;;;;;;6280942;28;20511;-82
2022/03/26 10:25:39;;;;;;;20.15;11.18;;;;;;;;;;6275133;28;20024;-82
2022/03/26 10:28:42;;;;;;;26.67;13.70;;;;;;;;;;6292805;28;20479;-82
2022/03/26 10:35:03;;;;;;;27.60;13.00;;;;;;;;;;6293617;28;20040;-82
2022/03/26 10:38:03;;;;;;;36.20;16.83;;;;;;;;;;6273872;28;20024;-83
2022/03/26 10:41:06;;;;;;;41.10;15.17;;;;;;;;;;6291729;28;20035;-83
2022/03/26 10:44:07;;;;;;;30.10;14.52;;;;;;;;;;6273171;28;20035;-82
2022/03/26 10:47:14;;;;;;;24.00;13.30;;;;;;;;;;6283614;28;20391;-83
2022/03/26 10:50:14;;;;;;;31.60;15.63;;;;;;;;;;6262308;28;20013;-83
2022/03/26 10:53:15;;;;;;;24.37;14.03;;;;;;;;;;6282293;28;20082;-83
2022/03/26 10:56:15;;;;;;;22.77;11.03;;;;;;;;;;6271100;28;20506;-83
2022/03/26 10:59:16;;;;;;;25.50;13.63;;;;;;;;;;6287799;28;20016;-83
2022/03/26 11:02:16;;;;;;;24.87;13.67;;;;;;;;;;6287574;28;20097;-84
2022/03/26 11:05:16;;;;;;;28.23;15.33;;;;;;;;;;6268089;28;20024;-82
2022/03/26 11:08:17;;;;;;;28.73;12.60;;;;;;;;;;6266352;28;20020;-82
2022/03/26 11:11:18;;;;;;;23.97;11.03;;;;;;;;;;6263117;28;20048;-82
2022/03/26 11:14:26;;;;;;;22.20;13.50;;;;;;;;;;6263908;28;20017;-82
2022/03/26 11:17:35;;;;;;;24.15;10.50;;;;;;;;;;6266874;28;20025;-83
2022/03/26 11:20:35;;;;;;;31.48;11.80;;;;;;;;;;6278184;28;20028;-84
2022/03/26 11:23:54;;;;;;;20.60;10.63;;;;;;;;;;6268273;28;20032;-83
2022/03/26 11:26:54;;;;;;;23.27;9.68;;;;;;;;;;6269717;28;20036;-82
2022/03/26 11:30:08;;;;;;;23.07;8.77;;;;;;;;;;6264587;28;20115;-82
2022/03/26 11:33:12;;;;;;;31.27;12.85;;;;;;;;;;6278649;28;20017;-82
2022/03/26 11:36:16;;;;;;;17.80;7.45;;;;;;;;;;6280399;28;20021;-82
2022/03/26 11:39:17;;;;;;;21.35;9.88;;;;;;;;;;6279222;28;20091;-82
2022/03/26 11:42:23;;;;;;;26.23;13.30;;;;;;;;;;6264122;28;20059;-82
2022/03/26 11:52:21;;;;;;;15.52;7.88;;;;;;;;;;6281249;28;20028;-82
2022/03/26 11:55:24;;;;;;;23.77;7.85;;;;;;;;;;6273827;28;20028;-82
2022/03/26 11:58:27;;;;;;;17.27;7.63;;;;;;;;;;6277855;28;20016;-83
2022/03/26 12:01:33;;;;;;;18.77;9.63;;;;;;;;;;6259317;28;20043;-82
2022/03/26 12:04:45;;;;;;;20.73;8.93;;;;;;;;;;6262527;28;20012;-83
2022/03/26 12:07:45;;;;;;;;;;;;;;;;;;6261751;28;20033;-82
2022/03/26 12:10:47;;;;;;;24.35;10.85;;;;;;;;;;6278134;28;19923;-81
2022/03/26 12:14:06;;;;;;;25.75;10.10;;;;;;;;;;6269929;28;20059;-82
2022/03/26 12:17:08;;;;;;;22.00;8.60;;;;;;;;;;6281020;28;20079;-83
2022/03/26 12:20:27;;;;;;;24.77;11.23;;;;;;;;;;6279300;28;20013;-82
2022/03/26 12:23:31;;;;;;;12.88;6.85;;;;;;;;;;6257516;28;20090;-82
2022/03/26 12:26:31;;;;;;;17.08;9.55;;;;;;;;;;6280444;28;20017;-82
2022/03/26 12:29:31;;;;;;;26.57;8.80;;;;;;;;;;6264078;28;20055;-83
2022/03/26 12:32:32;;;;;;;20.57;9.40;;;;;;;;;;6283400;28;20009;-82
2022/03/26 12:35:33;;;;;;;22.33;8.47;;;;;;;;;;6279606;28;20432;-82
2022/03/26 12:38:33;;;;;;;18.90;9.20;;;;;;;;;;6285032;28;20016;-82
2022/03/26 12:41:34;;;;;;;17.63;8.20;;;;;;;;;;6283573;28;20372;-83
2022/03/26 12:44:35;;;;;;;13.63;8.70;;;;;;;;;;6278992;28;20138;-82
2022/03/26 12:47:42;;;;;;;14.20;7.47;;;;;;;;;;6266247;28;20017;-82
2022/03/26 12:50:43;;;;;;;16.02;6.57;;;;;;;;;;6278129;28;20025;-82
2022/03/26 12:53:45;;;;;;;13.57;6.68;;;;;;;;;;6283310;28;20020;-83
2022/03/26 12:56:45;;;;;;;;;;;;;;;;;;6281546;28;20480;-82
2022/03/26 12:59:55;;;;;;;16.65;8.18;;;;;;;;;;6278367;28;20371;-82
2022/03/26 13:02:59;;;;;;;14.52;6.40;;;;;;;;;;6273418;28;20041;-82
2022/03/26 13:06:03;;;;;;;15.63;7.35;;;;;;;;;;6284096;28;20024;-83
2022/03/26 13:09:04;;;;;;;12.25;6.05;;;;;;;;;;6266697;28;20501;-83
2022/03/26 13:12:04;;;;;;;13.13;6.00;;;;;;;;;;6283157;28;20062;-82
2022/03/26 13:15:04;;;;;;;13.73;6.53;;;;;;;;;;6266941;28;20012;-82
2022/03/26 13:18:06;;;;;;;12.53;6.30;;;;;;;;;;6289168;28;20063;-83
2022/03/26 13:21:06;;;;;;;12.95;6.70;;;;;;;;;;6273282;28;20127;-83
2022/03/26 13:24:07;;;;;;;14.83;6.10;;;;;;;;;;6282044;28;20021;-82
2022/03/26 13:27:08;;;;;;;10.95;4.25;;;;;;;;;;6270147;28;20102;-82
2022/03/26 13:30:09;;;;;;;23.20;8.33;;;;;;;;;;6280716;28;20518;-83
2022/03/26 13:33:14;;;;;;;13.80;7.13;;;;;;;;;;6283858;28;20016;-83
2022/03/26 13:36:25;;;;;;;17.17;8.45;;;;;;;;;;6286696;28;20040;-82
2022/03/26 13:39:25;;;;;;;14.85;6.35;;;;;;;;;;6277067;28;20107;-83
2022/03/26 13:42:25;;;;;;;15.73;7.87;;;;;;;;;;6263751;28;20105;-83
2022/03/26 13:45:26;;;;;;;19.23;9.37;;;;;;;;;;6289916;28;20020;-83
2022/03/26 13:48:28;;;;;;;20.63;7.83;;;;;;;;;;6286976;28;20089;-82
2022/03/26 13:51:33;;;;;;;25.15;11.10;;;;;;;;;;6275232;28;20111;-82
2022/03/26 13:54:34;;;;;;;19.25;8.52;;;;;;;;;;6288256;28;20013;-83
2022/03/26 13:57:35;;;;;;;16.25;8.57;;;;;;;;;;6293567;28;20154;-82
2022/03/26 14:00:36;;;;;;;23.07;13.07;;;;;;;;;;6286620;28;20017;-83
2022/03/26 14:03:39;;;;;;;18.43;7.73;;;;;;;;;;6280784;28;20095;-83
2022/03/26 14:06:40;;;;;;;17.08;6.90;;;;;;;;;;6267028;28;20084;-83
2022/03/26 14:09:40;;;;;;;20.13;10.80;;;;;;;;;;6289294;28;20498;-83
2022/03/26 14:12:40;;;;;;;28.37;14.57;;;;;;;;;;6291427;28;20407;-83
2022/03/26 14:15:44;;;;;;;18.53;7.83;;;;;;;;;;6274916;28;20020;-83
2022/03/26 14:18:45;;;;;;;16.75;10.68;;;;;;;;;;6280862;28;20111;-83
2022/03/26 14:21:45;;;;;;;29.77;14.00;;;;;;;;;;6292769;28;20027;-84
2022/03/26 14:24:45;;;;;;;12.17;5.93;;;;;;;;;;6274309;28;20017;-84
2022/03/26 14:27:45;;;;;;;18.53;8.07;;;;;;;;;;6288226;28;20031;-83
2022/03/26 14:30:46;;;;;;;20.83;7.17;;;;;;;;;;6281765;28;20335;-83
2022/03/26 14:33:46;;;;;;;13.47;6.27;;;;;;;;;;6275255;28;20013;-84
2022/03/26 14:36:47;;;;;;;14.13;7.07;;;;;;;;;;6279228;28;20446;-83
2022/03/26 14:39:47;;;;;;;22.80;6.77;;;;;;;;;;6284637;28;20029;-83
2022/03/26 14:42:47;;;;;;;17.57;7.17;;;;;;;;;;6286501;28;20021;-83
2022/03/26 14:45:48;;;;;;;18.67;6.50;;;;;;;;;;6278863;28;20025;-83
2022/03/26 14:48:48;;;;;;;17.60;8.47;;;;;;;;;;6298599;28;20051;-83
2022/03/26 14:51:48;;;;;;;17.30;10.00;;;;;;;;;;6275457;28;20033;-83
2022/03/26 14:54:49;;;;;;;18.53;9.40;;;;;;;;;;6295818;28;20468;-82
2022/03/26 14:57:50;;;;;;;15.80;7.83;;;;;;;;;;6272072;28;20020;-83
2022/03/26 15:00:50;;;;;;;17.27;8.23;;;;;;;;;;6284539;28;20110;-83
2022/03/26 15:03:52;;;;;;;13.60;7.57;;;;;;;;;;6294029;28;20056;-83
2022/03/26 15:06:52;;;;;;;15.38;6.97;;;;;;;;;;6279406;28;20020;-83
2022/03/26 15:09:52;;;;;;;14.23;6.93;;;;;;;;;;6298069;28;20036;-83
2022/03/26 15:12:52;;;;;;;19.73;9.53;;;;;;;;;;6278463;28;20064;-83
2022/03/26 15:15:53;;;;;;;15.13;8.70;;;;;;;;;;6279804;28;20017;-83
2022/03/26 15:18:53;;;;;;;16.97;12.03;;;;;;;;;;6263667;28;20020;-83
2022/03/26 15:21:53;;;;;;;23.30;13.47;;;;;;;;;;6275302;28;20025;-83
2022/03/26 15:24:53;;;;;;;23.20;14.07;;;;;;;;;;6285257;28;20359;-86
2022/03/26 15:27:54;;;;;;;19.48;11.88;;;;;;;;;;6290564;28;20016;-83
2022/03/26 15:30:54;;;;;;;15.93;8.67;;;;;;;;;;6281983;28;20490;-83
2022/03/26 15:33:54;;;;;;;18.73;10.17;;;;;;;;;;6266713;28;20020;-83
2022/03/26 15:36:54;;;;;;;13.27;7.47;;;;;;;;;;6263697;28;20047;-83
2022/03/26 15:39:55;;;;;;;15.67;6.53;;;;;;;;;;6281669;28;20040;-83
2022/03/26 15:42:55;;;;;;;27.53;16.40;;;;;;;;;;6293084;28;20024;-84
2022/03/26 15:45:55;;;;;;;21.30;11.48;;;;;;;;;;6277720;28;20108;-83
2022/03/26 15:48:56;;;;;;;21.35;11.95;;;;;;;;;;6272665;28;20031;-83
2022/03/26 15:51:56;;;;;;;27.97;15.40;;;;;;;;;;6260005;28;20091;-83
2022/03/26 15:54:56;;;;;;;21.07;8.93;;;;;;;;;;6278253;28;20016;-83
2022/03/26 15:57:58;;;;;;;18.83;9.48;;;;;;;;;;6278715;28;20020;-83
2022/03/26 16:00:58;;;;;;;16.23;7.72;;;;;;;;;;6277932;28;20052;-82
2022/03/26 16:03:58;;;;;;;20.33;12.23;;;;;;;;;;6288725;28;20526;-82
2022/03/26 16:06:58;;;;;;;26.88;14.05;;;;;;;;;;6287559;28;20044;-84
2022/03/26 16:09:59;;;;;;;18.10;9.20;;;;;;;;;;6282580;28;20024;-83
2022/03/26 16:13:00;;;;;;;18.93;9.47;;;;;;;;;;6277482;28;20021;-83
2022/03/26 16:16:00;;;;;;;20.20;11.25;;;;;;;;;;6281787;28;20112;-83
2022/03/26 16:19:01;;;;;;;61.87;30.77;;;;;;;;;;6292978;28;20373;-83
2022/03/26 16:22:01;;;;;;;27.42;14.25;;;;;;;;;;6284748;28;20033;-83
2022/03/26 16:25:02;;;;;;;21.77;11.98;;;;;;;;;;6296279;28;20023;-82
2022/03/26 16:28:02;;;;;;;18.27;8.45;;;;;;;;;;6288995;28;20446;-83
2022/03/26 16:31:03;;;;;;;23.63;11.35;;;;;;;;;;6286399;28;20028;-83
2022/03/26 16:34:03;;;;;;;26.60;15.40;;;;;;;;;;6266525;28;20077;-83
2022/03/26 16:37:03;;;;;;;29.60;15.73;;;;;;;;;;6266630;28;20070;-83
2022/03/26 16:40:05;;;;;;;27.50;15.05;;;;;;;;;;6284905;28;20038;-83
2022/03/26 16:43:05;;;;;;;25.75;12.25;;;;;;;;;;6290514;28;20037;-83
2022/03/26 16:46:05;;;;;;;14.27;8.10;;;;;;;;;;6265562;28;20035;-83
2022/03/26 16:49:07;;;;;;;11.87;6.20;;;;;;;;;;6271677;28;20005;-83
2022/03/26 16:52:07;;;;;;;17.07;6.87;;;;;;;;;;6270288;28;20048;-83
2022/03/26 16:55:07;;;;;;;20.77;9.38;;;;;;;;;;6284164;28;20008;-84
2022/03/26 16:58:08;;;;;;;14.73;6.43;;;;;;;;;;6271479;28;20111;-83
2022/03/26 17:01:08;;;;;;;13.10;6.15;;;;;;;;;;6265251;28;20013;-83
2022/03/26 17:04:09;;;;;;;13.32;6.45;;;;;;;;;;6284119;28;20056;-83
2022/03/26 17:07:09;;;;;;;12.37;6.07;;;;;;;;;;6254719;28;20089;-83
2022/03/26 17:10:10;;;;;;;12.65;5.93;;;;;;;;;;6263495;28;20285;-83
2022/03/26 17:13:11;;;;;;;17.40;6.22;;;;;;;;;;6254258;28;20438;-83
2022/03/26 17:16:11;;;;;;;14.27;7.18;;;;;;;;;;6292302;28;20174;-83
2022/03/26 17:19:11;;;;;;;15.18;7.60;;;;;;;;;;6293032;28;20024;-84
2022/03/26 17:22:11;;;;;;;16.10;6.82;;;;;;;;;;6272730;28;20023;-83
2022/03/26 17:25:14;;;;;;;19.10;6.50;;;;;;;;;;6265678;28;20116;-83
2022/03/26 17:28:15;;;;;;;15.45;6.82;;;;;;;;;;6286710;28;20116;-83
2022/03/26 17:31:15;;;;;;;13.73;8.10;;;;;;;;;;6275941;28;20013;-83
2022/03/26 17:34:16;;;;;;;18.90;6.53;;;;;;;;;;6291875;28;20032;-83
2022/03/26 17:37:16;;;;;;;15.27;7.93;;;;;;;;;;6273723;28;20346;-84
2022/03/26 17:40:16;;;;;;;23.45;8.88;;;;;;;;;;6282871;28;20494;-84
2022/03/26 17:43:16;;;;;;;20.30;9.90;;;;;;;;;;6293294;28;20055;-84
2022/03/26 17:46:17;;;;;;;20.27;10.37;;;;;;;;;;6301836;28;20030;-84